Airfield :
LOGIN :

Register | Disclaimer

   EN    FR    IT 

 










Legend :    VFR   Marginal VFR   IFR   Intensive IFR   Very Intensive IFR
Visi :
Ceiling :
>= 8 km
>= 3000ft
5 to 8 km
1000 to 3000 ft
1500m to 5 km
500 to 1000 ft
800 to 1500m
200 to 500 ft
< 800m
< 200 ft
Symbols :   Thunderstorms  Fog  Heavy snow  Heavy precipitations  Wind > 20 kt
SIGMETs :     Misc.  Thunderstorms  Icing  Turbulence  Mountain Waves  Volcanic Ashes






- Airport Elevation : 1947 ft
- IATA code : OBF


EDMO - Oberpfaffenhofen

CURRENT METAR :
  • 302250Z AUTO 13003KT 3500 // NCD 08/07 Q1012

EXPIRED METARs :
  • 302220Z AUTO 12002KT 0800 R22/P2000N // NCD 08/07 Q1012
  • 302150Z AUTO 12003KT 9999 // NCD 09/08 Q1013
  • 302120Z AUTO VRB01KT 9999 // NCD 09/08 Q1013
  • 302050Z AUTO VRB01KT 9999 // NCD 09/08 Q1013
  • 302020Z AUTO 10003KT 9999 // NCD 09/09 Q1013

TAF TAF EDMO
Valid from the 30 at 18:00 until the 01 at 03:00 UTC


301700Z 3018/0103 05005KT 9999 FEW025
BECMG 3020/3022 VRB03KT 2000 BR
BECMG 3022/3024 0500 FG VV001



MET'MAP, your aeronautical weather chart ! - Copyright ORBIFLY December 2007 - Disclaimer

ORBIFLY MET'MAP TEAM :

Programming & Development : Alexandra Zaïnal
Concept & original design : Baudouin d'Aumeries
Assistance for programming : Marc-Olivier Méhu
Technical & hardware support : Manuel Goepfert

Contact : metmap@orbifly.com




SOURCES & CREDITS :

   NOAA